sensor_id;sensor_type;location;lat;lon;timestamp;P1;durP1;ratioP1;P2;durP2;ratioP2
24585;SDS011;12743;52.262;6.172;2023-02-28T00:02:20;8.00;;;2.35;;
24585;SDS011;12743;52.262;6.172;2023-02-28T00:04:47;6.63;;;2.00;;
24585;SDS011;12743;52.262;6.172;2023-02-28T00:07:19;7.78;;;2.00;;
24585;SDS011;12743;52.262;6.172;2023-02-28T00:09:45;6.18;;;2.00;;
24585;SDS011;12743;52.262;6.172;2023-02-28T00:12:12;6.30;;;1.90;;
24585;SDS011;12743;52.262;6.172;2023-02-28T00:14:39;6.57;;;2.30;;
24585;SDS011;12743;52.262;6.172;2023-02-28T00:17:06;7.35;;;2.40;;
24585;SDS011;12743;52.262;6.172;2023-02-28T00:19:33;5.28;;;2.20;;
24585;SDS011;12743;52.262;6.172;2023-02-28T00:21:59;5.95;;;1.73;;
24585;SDS011;12743;52.262;6.172;2023-02-28T00:24:28;5.83;;;2.03;;
24585;SDS011;12743;52.262;6.172;2023-02-28T00:26:55;7.88;;;2.80;;
24585;SDS011;12743;52.262;6.172;2023-02-28T00:29:22;8.07;;;2.05;;
24585;SDS011;12743;52.262;6.172;2023-02-28T00:31:51;5.90;;;2.17;;
24585;SDS011;12743;52.262;6.172;2023-02-28T00:34:18;7.18;;;2.40;;
24585;SDS011;12743;52.262;6.172;2023-02-28T00:36:45;8.03;;;2.40;;
24585;SDS011;12743;52.262;6.172;2023-02-28T00:39:15;7.85;;;2.33;;
24585;SDS011;12743;52.262;6.172;2023-02-28T00:41:42;6.45;;;1.83;;
24585;SDS011;12743;52.262;6.172;2023-02-28T00:44:09;9.43;;;2.30;;
24585;SDS011;12743;52.262;6.172;2023-02-28T00:46:36;8.15;;;2.40;;
24585;SDS011;12743;52.262;6.172;2023-02-28T00:49:02;5.67;;;1.90;;
24585;SDS011;12743;52.262;6.172;2023-02-28T00:51:29;6.85;;;2.20;;
24585;SDS011;12743;52.262;6.172;2023-02-28T00:53:56;6.18;;;2.00;;
24585;SDS011;12743;52.262;6.172;2023-02-28T00:56:23;6.30;;;2.00;;
24585;SDS011;12743;52.262;6.172;2023-02-28T00:58:50;6.43;;;2.00;;
24585;SDS011;12743;52.262;6.172;2023-02-28T01:01:18;5.70;;;2.20;;
24585;SDS011;12743;52.262;6.172;2023-02-28T01:03:44;6.30;;;2.03;;
24585;SDS011;12743;52.262;6.172;2023-02-28T01:06:12;7.43;;;2.20;;
24585;SDS011;12743;52.262;6.172;2023-02-28T01:08:39;5.60;;;1.80;;
24585;SDS011;12743;52.262;6.172;2023-02-28T01:11:08;6.45;;;2.10;;
24585;SDS011;12743;52.262;6.172;2023-02-28T01:13:39;4.80;;;1.70;;
24585;SDS011;12743;52.262;6.172;2023-02-28T01:16:06;5.15;;;2.10;;
24585;SDS011;12743;52.262;6.172;2023-02-28T01:18:33;7.72;;;2.22;;
24585;SDS011;12743;52.262;6.172;2023-02-28T01:21:08;5.85;;;2.08;;
24585;SDS011;12743;52.262;6.172;2023-02-28T01:23:36;10.70;;;2.03;;
24585;SDS011;12743;52.262;6.172;2023-02-28T01:26:04;6.40;;;2.90;;
24585;SDS011;12743;52.262;6.172;2023-02-28T01:28:38;5.80;;;1.83;;
24585;SDS011;12743;52.262;6.172;2023-02-28T01:31:05;5.63;;;1.90;;
24585;SDS011;12743;52.262;6.172;2023-02-28T01:33:32;5.80;;;1.92;;
24585;SDS011;12743;52.262;6.172;2023-02-28T01:36:00;4.95;;;1.67;;
24585;SDS011;12743;52.262;6.172;2023-02-28T01:38:35;7.87;;;2.23;;
24585;SDS011;12743;52.262;6.172;2023-02-28T01:41:02;6.53;;;2.17;;
24585;SDS011;12743;52.262;6.172;2023-02-28T01:43:31;5.30;;;1.73;;
24585;SDS011;12743;52.262;6.172;2023-02-28T01:46:17;4.60;;;1.70;;
24585;SDS011;12743;52.262;6.172;2023-02-28T01:51:26;5.83;;;2.00;;
24585;SDS011;12743;52.262;6.172;2023-02-28T01:53:57;8.30;;;2.42;;
24585;SDS011;12743;52.262;6.172;2023-02-28T01:56:29;6.60;;;2.47;;
24585;SDS011;12743;52.262;6.172;2023-02-28T01:58:59;7.32;;;1.92;;
24585;SDS011;12743;52.262;6.172;2023-02-28T02:01:27;5.05;;;1.70;;
24585;SDS011;12743;52.262;6.172;2023-02-28T02:03:57;6.63;;;2.00;;
24585;SDS011;12743;52.262;6.172;2023-02-28T02:06:33;6.32;;;1.88;;
24585;SDS011;12743;52.262;6.172;2023-02-28T02:09:06;7.85;;;2.08;;
24585;SDS011;12743;52.262;6.172;2023-02-28T02:11:33;7.53;;;2.08;;
24585;SDS011;12743;52.262;6.172;2023-02-28T02:14:12;7.13;;;2.28;;
24585;SDS011;12743;52.262;6.172;2023-02-28T02:17:04;5.47;;;1.70;;
24585;SDS011;12743;52.262;6.172;2023-02-28T02:19:46;6.00;;;1.98;;
24585;SDS011;12743;52.262;6.172;2023-02-28T02:22:21;6.70;;;2.03;;
24585;SDS011;12743;52.262;6.172;2023-02-28T02:25:08;7.55;;;1.90;;
24585;SDS011;12743;52.262;6.172;2023-02-28T02:33:06;7.47;;;2.30;;
24585;SDS011;12743;52.262;6.172;2023-02-28T02:36:07;6.40;;;2.00;;
24585;SDS011;12743;52.262;6.172;2023-02-28T02:38:46;8.70;;;2.47;;
24585;SDS011;12743;52.262;6.172;2023-02-28T02:41:26;6.88;;;2.08;;
24585;SDS011;12743;52.262;6.172;2023-02-28T02:44:15;6.07;;;1.90;;
24585;SDS011;12743;52.262;6.172;2023-02-28T02:47:02;5.63;;;2.10;;
24585;SDS011;12743;52.262;6.172;2023-02-28T02:49:37;6.50;;;2.17;;
24585;SDS011;12743;52.262;6.172;2023-02-28T02:52:08;7.85;;;2.22;;
24585;SDS011;12743;52.262;6.172;2023-02-28T02:54:38;6.15;;;2.08;;
24585;SDS011;12743;52.262;6.172;2023-02-28T02:57:17;4.67;;;2.10;;
24585;SDS011;12743;52.262;6.172;2023-02-28T02:59:48;5.07;;;1.90;;
24585;SDS011;12743;52.262;6.172;2023-02-28T03:02:18;5.93;;;2.00;;
24585;SDS011;12743;52.262;6.172;2023-02-28T03:04:51;6.93;;;2.55;;
24585;SDS011;12743;52.262;6.172;2023-02-28T03:07:20;6.47;;;1.95;;
24585;SDS011;12743;52.262;6.172;2023-02-28T03:09:54;5.07;;;1.80;;
24585;SDS011;12743;52.262;6.172;2023-02-28T03:12:40;6.75;;;2.10;;
24585;SDS011;12743;52.262;6.172;2023-02-28T03:15:13;6.80;;;2.47;;
24585;SDS011;12743;52.262;6.172;2023-02-28T03:17:53;9.00;;;1.85;;
24585;SDS011;12743;52.262;6.172;2023-02-28T03:20:40;5.25;;;2.20;;
24585;SDS011;12743;52.262;6.172;2023-02-28T03:23:21;7.30;;;2.30;;
24585;SDS011;12743;52.262;6.172;2023-02-28T03:26:02;6.40;;;2.15;;
24585;SDS011;12743;52.262;6.172;2023-02-28T03:31:26;7.13;;;2.30;;
24585;SDS011;12743;52.262;6.172;2023-02-28T03:34:01;6.82;;;2.28;;
24585;SDS011;12743;52.262;6.172;2023-02-28T03:36:38;7.33;;;2.80;;
24585;SDS011;12743;52.262;6.172;2023-02-28T03:39:20;6.03;;;2.05;;
24585;SDS011;12743;52.262;6.172;2023-02-28T03:42:33;8.43;;;2.22;;
24585;SDS011;12743;52.262;6.172;2023-02-28T03:44:46;6.93;;;2.33;;
24585;SDS011;12743;52.262;6.172;2023-02-28T03:47:19;7.90;;;2.35;;
24585;SDS011;12743;52.262;6.172;2023-02-28T03:49:54;11.10;;;2.23;;
24585;SDS011;12743;52.262;6.172;2023-02-28T03:52:27;5.85;;;2.10;;
24585;SDS011;12743;52.262;6.172;2023-02-28T03:54:59;7.45;;;1.75;;
24585;SDS011;12743;52.262;6.172;2023-02-28T04:00:17;6.38;;;2.00;;
24585;SDS011;12743;52.262;6.172;2023-02-28T04:02:47;6.30;;;2.00;;
24585;SDS011;12743;52.262;6.172;2023-02-28T04:05:19;5.75;;;2.03;;
24585;SDS011;12743;52.262;6.172;2023-02-28T04:07:47;6.93;;;2.42;;
24585;SDS011;12743;52.262;6.172;2023-02-28T04:10:15;7.72;;;2.80;;
24585;SDS011;12743;52.262;6.172;2023-02-28T04:12:42;9.18;;;2.47;;
24585;SDS011;12743;52.262;6.172;2023-02-28T04:15:09;6.40;;;2.33;;
24585;SDS011;12743;52.262;6.172;2023-02-28T04:17:37;6.47;;;2.10;;
24585;SDS011;12743;52.262;6.172;2023-02-28T04:20:04;5.47;;;1.95;;
24585;SDS011;12743;52.262;6.172;2023-02-28T04:22:36;6.95;;;2.42;;
24585;SDS011;12743;52.262;6.172;2023-02-28T04:25:03;5.35;;;2.50;;
24585;SDS011;12743;52.262;6.172;2023-02-28T04:27:32;7.57;;;2.10;;
24585;SDS011;12743;52.262;6.172;2023-02-28T04:29:59;7.05;;;1.95;;
24585;SDS011;12743;52.262;6.172;2023-02-28T04:32:25;5.65;;;2.05;;
24585;SDS011;12743;52.262;6.172;2023-02-28T04:34:52;5.50;;;1.98;;
24585;SDS011;12743;52.262;6.172;2023-02-28T04:37:19;5.10;;;1.90;;
24585;SDS011;12743;52.262;6.172;2023-02-28T04:39:46;4.80;;;2.00;;
24585;SDS011;12743;52.262;6.172;2023-02-28T04:42:13;8.75;;;1.90;;
24585;SDS011;12743;52.262;6.172;2023-02-28T04:44:40;5.15;;;1.95;;
24585;SDS011;12743;52.262;6.172;2023-02-28T04:47:06;6.43;;;2.20;;
24585;SDS011;12743;52.262;6.172;2023-02-28T04:49:34;7.82;;;2.08;;
24585;SDS011;12743;52.262;6.172;2023-02-28T04:52:01;5.83;;;2.00;;
24585;SDS011;12743;52.262;6.172;2023-02-28T04:54:31;4.82;;;1.80;;
24585;SDS011;12743;52.262;6.172;2023-02-28T04:57:04;7.30;;;2.30;;
24585;SDS011;12743;52.262;6.172;2023-02-28T04:59:31;4.97;;;1.98;;
24585;SDS011;12743;52.262;6.172;2023-02-28T05:01:58;5.07;;;1.80;;
24585;SDS011;12743;52.262;6.172;2023-02-28T05:04:24;6.07;;;2.43;;
24585;SDS011;12743;52.262;6.172;2023-02-28T05:06:51;5.53;;;1.98;;
24585;SDS011;12743;52.262;6.172;2023-02-28T05:09:18;5.15;;;2.13;;
24585;SDS011;12743;52.262;6.172;2023-02-28T05:11:45;6.15;;;1.55;;
24585;SDS011;12743;52.262;6.172;2023-02-28T05:14:12;6.72;;;2.05;;
24585;SDS011;12743;52.262;6.172;2023-02-28T05:16:40;6.73;;;1.87;;
24585;SDS011;12743;52.262;6.172;2023-02-28T05:19:07;6.53;;;1.85;;
24585;SDS011;12743;52.262;6.172;2023-02-28T05:21:34;5.55;;;1.90;;
24585;SDS011;12743;52.262;6.172;2023-02-28T05:24:04;5.45;;;1.83;;
24585;SDS011;12743;52.262;6.172;2023-02-28T05:26:40;5.40;;;1.70;;
24585;SDS011;12743;52.262;6.172;2023-02-28T05:29:09;6.20;;;1.90;;
24585;SDS011;12743;52.262;6.172;2023-02-28T05:31:37;4.68;;;1.90;;
24585;SDS011;12743;52.262;6.172;2023-02-28T05:34:04;4.85;;;1.67;;
24585;SDS011;12743;52.262;6.172;2023-02-28T05:36:31;5.45;;;1.92;;
24585;SDS011;12743;52.262;6.172;2023-02-28T05:38:58;6.57;;;2.30;;
24585;SDS011;12743;52.262;6.172;2023-02-28T05:41:25;7.20;;;2.10;;
24585;SDS011;12743;52.262;6.172;2023-02-28T05:43:53;5.70;;;2.10;;
24585;SDS011;12743;52.262;6.172;2023-02-28T05:46:19;5.78;;;2.13;;
24585;SDS011;12743;52.262;6.172;2023-02-28T05:48:47;5.45;;;2.05;;
24585;SDS011;12743;52.262;6.172;2023-02-28T05:51:14;6.68;;;2.03;;
24585;SDS011;12743;52.262;6.172;2023-02-28T05:53:41;6.37;;;2.30;;
24585;SDS011;12743;52.262;6.172;2023-02-28T05:56:08;4.88;;;1.73;;
24585;SDS011;12743;52.262;6.172;2023-02-28T05:58:35;5.82;;;1.85;;
24585;SDS011;12743;52.262;6.172;2023-02-28T06:01:18;7.75;;;1.98;;
24585;SDS011;12743;52.262;6.172;2023-02-28T06:03:47;7.07;;;2.10;;
24585;SDS011;12743;52.262;6.172;2023-02-28T06:06:13;5.70;;;1.90;;
24585;SDS011;12743;52.262;6.172;2023-02-28T06:08:40;5.05;;;1.67;;
24585;SDS011;12743;52.262;6.172;2023-02-28T06:11:09;6.65;;;2.25;;
24585;SDS011;12743;52.262;6.172;2023-02-28T06:13:36;5.85;;;2.15;;
24585;SDS011;12743;52.262;6.172;2023-02-28T06:16:03;6.15;;;2.25;;
24585;SDS011;12743;52.262;6.172;2023-02-28T06:18:29;4.77;;;1.90;;
24585;SDS011;12743;52.262;6.172;2023-02-28T06:20:56;5.47;;;2.05;;
24585;SDS011;12743;52.262;6.172;2023-02-28T06:23:25;4.75;;;1.60;;
24585;SDS011;12743;52.262;6.172;2023-02-28T06:25:52;7.20;;;2.00;;
24585;SDS011;12743;52.262;6.172;2023-02-28T06:28:19;5.97;;;1.95;;
24585;SDS011;12743;52.262;6.172;2023-02-28T06:30:46;5.07;;;2.00;;
24585;SDS011;12743;52.262;6.172;2023-02-28T06:33:13;4.32;;;2.00;;
24585;SDS011;12743;52.262;6.172;2023-02-28T06:35:39;6.25;;;2.00;;
24585;SDS011;12743;52.262;6.172;2023-02-28T06:38:09;5.95;;;2.20;;
24585;SDS011;12743;52.262;6.172;2023-02-28T06:40:36;6.05;;;2.10;;
24585;SDS011;12743;52.262;6.172;2023-02-28T06:43:03;6.20;;;1.77;;
24585;SDS011;12743;52.262;6.172;2023-02-28T06:45:30;5.47;;;2.00;;
24585;SDS011;12743;52.262;6.172;2023-02-28T06:47:57;4.93;;;1.83;;
24585;SDS011;12743;52.262;6.172;2023-02-28T06:50:24;4.30;;;2.05;;
24585;SDS011;12743;52.262;6.172;2023-02-28T06:52:51;6.78;;;2.25;;
24585;SDS011;12743;52.262;6.172;2023-02-28T06:55:20;5.97;;;2.03;;
24585;SDS011;12743;52.262;6.172;2023-02-28T06:57:47;5.60;;;2.50;;
24585;SDS011;12743;52.262;6.172;2023-02-28T07:00:14;4.43;;;1.80;;
24585;SDS011;12743;52.262;6.172;2023-02-28T07:02:41;7.20;;;2.10;;
24585;SDS011;12743;52.262;6.172;2023-02-28T07:05:08;6.28;;;2.38;;
24585;SDS011;12743;52.262;6.172;2023-02-28T07:07:35;6.93;;;2.80;;
24585;SDS011;12743;52.262;6.172;2023-02-28T07:10:04;6.63;;;2.63;;
24585;SDS011;12743;52.262;6.172;2023-02-28T07:12:33;7.85;;;2.63;;
24585;SDS011;12743;52.262;6.172;2023-02-28T07:15:00;7.32;;;2.95;;
24585;SDS011;12743;52.262;6.172;2023-02-28T07:17:27;6.85;;;2.67;;
24585;SDS011;12743;52.262;6.172;2023-02-28T07:19:54;5.70;;;2.40;;
24585;SDS011;12743;52.262;6.172;2023-02-28T07:22:20;7.13;;;2.60;;
24585;SDS011;12743;52.262;6.172;2023-02-28T07:24:47;5.93;;;2.45;;
24585;SDS011;12743;52.262;6.172;2023-02-28T07:27:17;6.78;;;2.42;;
24585;SDS011;12743;52.262;6.172;2023-02-28T07:29:55;7.63;;;2.50;;
24585;SDS011;12743;52.262;6.172;2023-02-28T07:32:22;9.00;;;2.50;;
24585;SDS011;12743;52.262;6.172;2023-02-28T07:34:49;5.80;;;2.08;;
24585;SDS011;12743;52.262;6.172;2023-02-28T07:37:16;6.38;;;2.38;;
24585;SDS011;12743;52.262;6.172;2023-02-28T07:39:43;7.03;;;2.40;;
24585;SDS011;12743;52.262;6.172;2023-02-28T07:42:10;6.07;;;2.40;;
24585;SDS011;12743;52.262;6.172;2023-02-28T07:44:38;6.17;;;2.20;;
24585;SDS011;12743;52.262;6.172;2023-02-28T07:47:07;5.45;;;2.15;;
24585;SDS011;12743;52.262;6.172;2023-02-28T07:49:37;8.18;;;2.50;;
24585;SDS011;12743;52.262;6.172;2023-02-28T07:52:05;6.47;;;2.10;;
24585;SDS011;12743;52.262;6.172;2023-02-28T07:54:33;5.78;;;2.33;;
24585;SDS011;12743;52.262;6.172;2023-02-28T07:57:00;8.10;;;2.57;;
24585;SDS011;12743;52.262;6.172;2023-02-28T07:59:27;8.50;;;2.72;;
24585;SDS011;12743;52.262;6.172;2023-02-28T08:02:03;5.05;;;2.10;;
24585;SDS011;12743;52.262;6.172;2023-02-28T08:04:33;8.32;;;2.40;;
24585;SDS011;12743;52.262;6.172;2023-02-28T08:06:59;5.75;;;1.70;;
24585;SDS011;12743;52.262;6.172;2023-02-28T08:09:26;6.57;;;2.10;;
24585;SDS011;12743;52.262;6.172;2023-02-28T08:11:53;5.22;;;1.73;;
24585;SDS011;12743;52.262;6.172;2023-02-28T08:14:20;5.50;;;1.90;;
24585;SDS011;12743;52.262;6.172;2023-02-28T08:16:47;7.03;;;2.10;;
24585;SDS011;12743;52.262;6.172;2023-02-28T08:19:14;7.13;;;1.95;;
24585;SDS011;12743;52.262;6.172;2023-02-28T08:21:40;5.97;;;2.10;;
24585;SDS011;12743;52.262;6.172;2023-02-28T08:24:07;5.82;;;1.95;;
24585;SDS011;12743;52.262;6.172;2023-02-28T08:26:34;5.55;;;2.00;;
24585;SDS011;12743;52.262;6.172;2023-02-28T08:29:01;5.97;;;1.88;;
24585;SDS011;12743;52.262;6.172;2023-02-28T08:31:32;7.88;;;1.70;;
24585;SDS011;12743;52.262;6.172;2023-02-28T08:33:59;4.83;;;1.60;;
24585;SDS011;12743;52.262;6.172;2023-02-28T08:36:26;4.70;;;1.67;;
24585;SDS011;12743;52.262;6.172;2023-02-28T08:38:55;4.65;;;1.48;;
24585;SDS011;12743;52.262;6.172;2023-02-28T08:41:23;5.63;;;1.05;;
24585;SDS011;12743;52.262;6.172;2023-02-28T08:43:49;5.47;;;1.45;;
24585;SDS011;12743;52.262;6.172;2023-02-28T08:46:16;3.93;;;0.90;;
24585;SDS011;12743;52.262;6.172;2023-02-28T08:48:43;3.05;;;1.05;;
24585;SDS011;12743;52.262;6.172;2023-02-28T08:51:11;3.83;;;1.00;;
24585;SDS011;12743;52.262;6.172;2023-02-28T08:53:42;3.80;;;0.73;;
24585;SDS011;12743;52.262;6.172;2023-02-28T08:56:10;4.07;;;1.00;;
24585;SDS011;12743;52.262;6.172;2023-02-28T08:58:38;3.97;;;1.03;;
24585;SDS011;12743;52.262;6.172;2023-02-28T09:01:10;3.22;;;0.70;;
24585;SDS011;12743;52.262;6.172;2023-02-28T09:03:39;3.70;;;0.85;;
24585;SDS011;12743;52.262;6.172;2023-02-28T09:06:08;3.80;;;0.80;;
24585;SDS011;12743;52.262;6.172;2023-02-28T09:08:36;3.50;;;0.77;;
24585;SDS011;12743;52.262;6.172;2023-02-28T09:11:03;3.23;;;0.77;;
24585;SDS011;12743;52.262;6.172;2023-02-28T09:13:38;3.03;;;0.60;;
24585;SDS011;12743;52.262;6.172;2023-02-28T09:16:10;3.63;;;0.75;;
24585;SDS011;12743;52.262;6.172;2023-02-28T09:18:41;4.80;;;1.00;;
24585;SDS011;12743;52.262;6.172;2023-02-28T09:21:12;2.63;;;0.50;;
24585;SDS011;12743;52.262;6.172;2023-02-28T09:23:45;4.10;;;1.00;;
24585;SDS011;12743;52.262;6.172;2023-02-28T09:26:15;4.75;;;0.90;;
24585;SDS011;12743;52.262;6.172;2023-02-28T09:28:46;3.15;;;0.77;;
24585;SDS011;12743;52.262;6.172;2023-02-28T09:31:14;2.58;;;0.80;;
24585;SDS011;12743;52.262;6.172;2023-02-28T09:33:42;2.38;;;0.63;;
24585;SDS011;12743;52.262;6.172;2023-02-28T09:36:09;2.20;;;0.60;;
24585;SDS011;12743;52.262;6.172;2023-02-28T09:38:36;1.58;;;0.40;;
24585;SDS011;12743;52.262;6.172;2023-02-28T09:41:04;1.88;;;0.45;;
24585;SDS011;12743;52.262;6.172;2023-02-28T09:43:40;2.42;;;0.50;;
24585;SDS011;12743;52.262;6.172;2023-02-28T09:49:10;2.63;;;0.73;;
24585;SDS011;12743;52.262;6.172;2023-02-28T09:54:22;3.15;;;0.43;;
24585;SDS011;12743;52.262;6.172;2023-02-28T09:56:55;2.35;;;0.40;;
24585;SDS011;12743;52.262;6.172;2023-02-28T10:04:58;2.00;;;0.57;;
24585;SDS011;12743;52.262;6.172;2023-02-28T10:09:58;2.78;;;0.60;;
24585;SDS011;12743;52.262;6.172;2023-02-28T10:12:28;2.50;;;0.50;;
24585;SDS011;12743;52.262;6.172;2023-02-28T10:14:56;2.77;;;0.40;;
24585;SDS011;12743;52.262;6.172;2023-02-28T10:17:26;4.60;;;0.75;;
24585;SDS011;12743;52.262;6.172;2023-02-28T10:20:21;1.73;;;0.40;;
24585;SDS011;12743;52.262;6.172;2023-02-28T10:25:47;2.15;;;0.68;;
24585;SDS011;12743;52.262;6.172;2023-02-28T10:28:20;2.27;;;0.40;;
24585;SDS011;12743;52.262;6.172;2023-02-28T10:30:50;1.85;;;0.50;;
24585;SDS011;12743;52.262;6.172;2023-02-28T10:33:37;2.08;;;0.43;;
24585;SDS011;12743;52.262;6.172;2023-02-28T10:36:04;3.60;;;0.70;;
24585;SDS011;12743;52.262;6.172;2023-02-28T10:38:34;2.88;;;0.50;;
24585;SDS011;12743;52.262;6.172;2023-02-28T10:41:10;2.97;;;0.70;;
24585;SDS011;12743;52.262;6.172;2023-02-28T10:43:43;2.47;;;0.50;;
24585;SDS011;12743;52.262;6.172;2023-02-28T10:46:15;3.03;;;0.80;;
24585;SDS011;12743;52.262;6.172;2023-02-28T10:49:03;3.63;;;0.50;;
24585;SDS011;12743;52.262;6.172;2023-02-28T10:51:37;2.38;;;0.50;;
24585;SDS011;12743;52.262;6.172;2023-02-28T10:54:05;2.57;;;0.50;;
24585;SDS011;12743;52.262;6.172;2023-02-28T10:56:41;3.63;;;0.60;;
24585;SDS011;12743;52.262;6.172;2023-02-28T11:01:42;2.35;;;0.52;;
24585;SDS011;12743;52.262;6.172;2023-02-28T11:04:19;2.90;;;0.60;;
24585;SDS011;12743;52.262;6.172;2023-02-28T11:06:56;1.23;;;0.30;;
24585;SDS011;12743;52.262;6.172;2023-02-28T11:11:58;2.58;;;0.50;;
24585;SDS011;12743;52.262;6.172;2023-02-28T11:14:26;2.80;;;0.60;;
24585;SDS011;12743;52.262;6.172;2023-02-28T11:16:57;2.72;;;0.80;;
24585;SDS011;12743;52.262;6.172;2023-02-28T11:19:32;2.53;;;0.60;;
24585;SDS011;12743;52.262;6.172;2023-02-28T11:22:08;1.65;;;0.50;;
24585;SDS011;12743;52.262;6.172;2023-02-28T11:24:36;1.65;;;0.50;;
24585;SDS011;12743;52.262;6.172;2023-02-28T11:29:57;2.97;;;0.70;;
24585;SDS011;12743;52.262;6.172;2023-02-28T11:32:26;2.43;;;0.67;;
24585;SDS011;12743;52.262;6.172;2023-02-28T11:37:38;2.58;;;0.73;;
24585;SDS011;12743;52.262;6.172;2023-02-28T11:40:13;3.03;;;0.70;;
24585;SDS011;12743;52.262;6.172;2023-02-28T11:48:26;2.40;;;0.70;;
24585;SDS011;12743;52.262;6.172;2023-02-28T11:53:48;2.58;;;0.73;;
24585;SDS011;12743;52.262;6.172;2023-02-28T12:02:18;4.35;;;0.60;;
24585;SDS011;12743;52.262;6.172;2023-02-28T12:10:52;2.65;;;0.82;;
24585;SDS011;12743;52.262;6.172;2023-02-28T12:13:37;2.03;;;0.50;;
24585;SDS011;12743;52.262;6.172;2023-02-28T12:18:53;2.88;;;0.60;;
24585;SDS011;12743;52.262;6.172;2023-02-28T12:26:46;2.87;;;0.77;;
24585;SDS011;12743;52.262;6.172;2023-02-28T12:29:17;2.65;;;0.80;;
24585;SDS011;12743;52.262;6.172;2023-02-28T12:31:55;4.28;;;0.90;;
24585;SDS011;12743;52.262;6.172;2023-02-28T12:34:27;2.85;;;0.80;;
24585;SDS011;12743;52.262;6.172;2023-02-28T12:37:02;2.15;;;0.50;;
24585;SDS011;12743;52.262;6.172;2023-02-28T12:39:38;3.30;;;0.80;;
24585;SDS011;12743;52.262;6.172;2023-02-28T12:42:22;2.40;;;0.80;;
24585;SDS011;12743;52.262;6.172;2023-02-28T12:45:17;3.00;;;0.60;;
24585;SDS011;12743;52.262;6.172;2023-02-28T12:47:45;3.42;;;0.70;;
24585;SDS011;12743;52.262;6.172;2023-02-28T12:50:17;3.13;;;0.80;;
24585;SDS011;12743;52.262;6.172;2023-02-28T12:53:03;2.57;;;0.90;;
24585;SDS011;12743;52.262;6.172;2023-02-28T13:01:34;4.93;;;0.98;;
24585;SDS011;12743;52.262;6.172;2023-02-28T13:04:24;3.50;;;0.90;;
24585;SDS011;12743;52.262;6.172;2023-02-28T13:09:58;3.17;;;0.85;;
24585;SDS011;12743;52.262;6.172;2023-02-28T13:12:27;1.80;;;0.52;;
24585;SDS011;12743;52.262;6.172;2023-02-28T13:17:58;2.45;;;0.60;;
24585;SDS011;12743;52.262;6.172;2023-02-28T13:20:35;1.73;;;0.67;;
24585;SDS011;12743;52.262;6.172;2023-02-28T13:23:14;4.15;;;0.68;;
24585;SDS011;12743;52.262;6.172;2023-02-28T13:26:08;3.70;;;0.75;;
24585;SDS011;12743;52.262;6.172;2023-02-28T13:31:17;2.85;;;0.60;;
24585;SDS011;12743;52.262;6.172;2023-02-28T13:38:55;1.50;;;0.40;;
24585;SDS011;12743;52.262;6.172;2023-02-28T13:49:20;2.95;;;0.57;;
24585;SDS011;12743;52.262;6.172;2023-02-28T13:54:24;2.78;;;0.50;;
24585;SDS011;12743;52.262;6.172;2023-02-28T13:57:09;1.85;;;0.50;;
24585;SDS011;12743;52.262;6.172;2023-02-28T13:59:56;2.87;;;0.50;;
24585;SDS011;12743;52.262;6.172;2023-02-28T14:05:35;1.67;;;0.40;;
24585;SDS011;12743;52.262;6.172;2023-02-28T14:10:49;1.77;;;0.43;;
24585;SDS011;12743;52.262;6.172;2023-02-28T14:13:41;2.30;;;0.40;;
24585;SDS011;12743;52.262;6.172;2023-02-28T14:16:13;3.58;;;0.60;;
24585;SDS011;12743;52.262;6.172;2023-02-28T14:18:47;2.15;;;0.40;;
24585;SDS011;12743;52.262;6.172;2023-02-28T14:24:03;2.38;;;0.50;;
24585;SDS011;12743;52.262;6.172;2023-02-28T14:26:44;1.87;;;0.40;;
24585;SDS011;12743;52.262;6.172;2023-02-28T14:38:14;2.53;;;0.60;;
24585;SDS011;12743;52.262;6.172;2023-02-28T14:40:47;5.10;;;0.40;;
24585;SDS011;12743;52.262;6.172;2023-02-28T14:43:19;2.70;;;0.60;;
24585;SDS011;12743;52.262;6.172;2023-02-28T14:45:50;2.83;;;0.40;;
24585;SDS011;12743;52.262;6.172;2023-02-28T14:48:19;4.40;;;0.45;;
24585;SDS011;12743;52.262;6.172;2023-02-28T14:50:52;4.90;;;0.90;;
24585;SDS011;12743;52.262;6.172;2023-02-28T14:53:21;2.60;;;0.70;;
24585;SDS011;12743;52.262;6.172;2023-02-28T14:55:49;1.50;;;0.60;;
24585;SDS011;12743;52.262;6.172;2023-02-28T14:58:29;2.25;;;0.60;;
24585;SDS011;12743;52.262;6.172;2023-02-28T15:01:00;2.67;;;0.68;;
24585;SDS011;12743;52.262;6.172;2023-02-28T15:05:59;2.40;;;0.50;;
24585;SDS011;12743;52.262;6.172;2023-02-28T15:08:47;1.40;;;0.40;;
24585;SDS011;12743;52.262;6.172;2023-02-28T15:11:15;5.38;;;0.80;;
24585;SDS011;12743;52.262;6.172;2023-02-28T15:13:50;2.53;;;0.60;;
24585;SDS011;12743;52.262;6.172;2023-02-28T15:16:25;3.22;;;0.60;;
24585;SDS011;12743;52.262;6.172;2023-02-28T15:18:57;3.37;;;0.73;;
24585;SDS011;12743;52.262;6.172;2023-02-28T15:21:29;4.35;;;0.95;;
24585;SDS011;12743;52.262;6.172;2023-02-28T15:26:37;3.13;;;0.80;;
24585;SDS011;12743;52.262;6.172;2023-02-28T15:29:12;6.20;;;0.80;;
24585;SDS011;12743;52.262;6.172;2023-02-28T15:31:46;2.93;;;0.60;;
24585;SDS011;12743;52.262;6.172;2023-02-28T15:34:42;3.15;;;0.77;;
24585;SDS011;12743;52.262;6.172;2023-02-28T15:39:58;2.53;;;0.80;;
24585;SDS011;12743;52.262;6.172;2023-02-28T15:42:31;4.90;;;0.98;;
24585;SDS011;12743;52.262;6.172;2023-02-28T15:44:58;2.53;;;0.80;;
24585;SDS011;12743;52.262;6.172;2023-02-28T15:47:26;3.80;;;1.00;;
24585;SDS011;12743;52.262;6.172;2023-02-28T15:50:02;3.20;;;0.80;;
24585;SDS011;12743;52.262;6.172;2023-02-28T15:55:17;2.65;;;0.65;;
24585;SDS011;12743;52.262;6.172;2023-02-28T15:57:51;3.30;;;0.73;;
24585;SDS011;12743;52.262;6.172;2023-02-28T16:00:22;3.45;;;0.90;;
24585;SDS011;12743;52.262;6.172;2023-02-28T16:02:50;2.75;;;0.70;;
24585;SDS011;12743;52.262;6.172;2023-02-28T16:07:59;3.15;;;0.95;;
24585;SDS011;12743;52.262;6.172;2023-02-28T16:10:39;2.97;;;1.07;;
24585;SDS011;12743;52.262;6.172;2023-02-28T16:13:06;4.03;;;0.75;;
24585;SDS011;12743;52.262;6.172;2023-02-28T16:15:38;2.97;;;0.85;;
24585;SDS011;12743;52.262;6.172;2023-02-28T16:18:12;2.10;;;0.70;;
24585;SDS011;12743;52.262;6.172;2023-02-28T16:20:39;3.60;;;1.00;;
24585;SDS011;12743;52.262;6.172;2023-02-28T16:23:06;3.23;;;0.70;;
24585;SDS011;12743;52.262;6.172;2023-02-28T16:25:34;3.92;;;0.85;;
24585;SDS011;12743;52.262;6.172;2023-02-28T16:28:03;3.50;;;1.00;;
24585;SDS011;12743;52.262;6.172;2023-02-28T16:30:34;2.85;;;0.90;;
24585;SDS011;12743;52.262;6.172;2023-02-28T16:33:01;2.75;;;0.90;;
24585;SDS011;12743;52.262;6.172;2023-02-28T16:35:28;4.23;;;0.90;;
24585;SDS011;12743;52.262;6.172;2023-02-28T16:37:54;3.83;;;1.05;;
24585;SDS011;12743;52.262;6.172;2023-02-28T16:40:23;2.65;;;0.90;;
24585;SDS011;12743;52.262;6.172;2023-02-28T16:42:57;3.35;;;1.00;;
24585;SDS011;12743;52.262;6.172;2023-02-28T16:45:26;3.45;;;0.80;;
24585;SDS011;12743;52.262;6.172;2023-02-28T16:47:54;3.13;;;1.03;;
24585;SDS011;12743;52.262;6.172;2023-02-28T16:50:23;2.90;;;0.88;;
24585;SDS011;12743;52.262;6.172;2023-02-28T16:52:52;4.00;;;1.00;;
24585;SDS011;12743;52.262;6.172;2023-02-28T16:55:21;2.92;;;1.08;;
24585;SDS011;12743;52.262;6.172;2023-02-28T16:57:58;3.83;;;1.30;;
24585;SDS011;12743;52.262;6.172;2023-02-28T17:00:26;3.37;;;1.00;;
24585;SDS011;12743;52.262;6.172;2023-02-28T17:02:55;3.80;;;0.98;;
24585;SDS011;12743;52.262;6.172;2023-02-28T17:05:25;3.95;;;1.38;;
24585;SDS011;12743;52.262;6.172;2023-02-28T17:07:53;2.55;;;0.85;;
24585;SDS011;12743;52.262;6.172;2023-02-28T17:12:51;6.17;;;1.20;;
24585;SDS011;12743;52.262;6.172;2023-02-28T17:15:21;2.25;;;0.77;;
24585;SDS011;12743;52.262;6.172;2023-02-28T17:17:48;2.80;;;0.60;;
24585;SDS011;12743;52.262;6.172;2023-02-28T17:20:17;2.97;;;0.90;;
24585;SDS011;12743;52.262;6.172;2023-02-28T17:22:50;3.60;;;1.10;;
24585;SDS011;12743;52.262;6.172;2023-02-28T17:25:17;3.37;;;1.00;;